sensor_id;sensor_type;location;lat;lon;timestamp;temperature;humidity
84807;DHT22;75042;43.504;3.714;2024-01-27T00:00:13;8.10;90.70
84807;DHT22;75042;43.504;3.714;2024-01-27T00:02:39;8.10;92.00
84807;DHT22;75042;43.504;3.714;2024-01-27T00:05:05;8.10;91.50
84807;DHT22;75042;43.504;3.714;2024-01-27T00:07:30;8.10;92.20
84807;DHT22;75042;43.504;3.714;2024-01-27T00:09:56;8.10;91.60
84807;DHT22;75042;43.504;3.714;2024-01-27T00:12:23;8.00;91.90
84807;DHT22;75042;43.504;3.714;2024-01-27T00:14:49;8.00;91.70
84807;DHT22;75042;43.504;3.714;2024-01-27T00:17:14;7.90;92.00
84807;DHT22;75042;43.504;3.714;2024-01-27T00:19:40;8.00;92.80
84807;DHT22;75042;43.504;3.714;2024-01-27T00:22:07;7.90;92.20
84807;DHT22;75042;43.504;3.714;2024-01-27T00:24:33;7.90;92.80
84807;DHT22;75042;43.504;3.714;2024-01-27T00:26:58;7.80;92.20
84807;DHT22;75042;43.504;3.714;2024-01-27T00:29:24;7.80;92.40
84807;DHT22;75042;43.504;3.714;2024-01-27T00:31:49;7.80;92.40
84807;DHT22;75042;43.504;3.714;2024-01-27T00:34:16;7.70;92.50
84807;DHT22;75042;43.504;3.714;2024-01-27T00:36:42;7.60;92.20
84807;DHT22;75042;43.504;3.714;2024-01-27T00:39:19;7.60;92.10
84807;DHT22;75042;43.504;3.714;2024-01-27T00:41:45;7.50;92.40
84807;DHT22;75042;43.504;3.714;2024-01-27T00:44:11;7.50;93.30
84807;DHT22;75042;43.504;3.714;2024-01-27T00:46:37;7.40;93.10
84807;DHT22;75042;43.504;3.714;2024-01-27T00:49:02;7.50;94.30
84807;DHT22;75042;43.504;3.714;2024-01-27T00:51:28;7.40;94.20
84807;DHT22;75042;43.504;3.714;2024-01-27T00:53:54;7.40;93.90
84807;DHT22;75042;43.504;3.714;2024-01-27T00:56:19;7.40;94.60
84807;DHT22;75042;43.504;3.714;2024-01-27T00:58:45;7.40;94.50
84807;DHT22;75042;43.504;3.714;2024-01-27T01:01:10;7.40;94.30
84807;DHT22;75042;43.504;3.714;2024-01-27T01:03:36;7.40;94.90
84807;DHT22;75042;43.504;3.714;2024-01-27T01:06:01;7.40;94.80
84807;DHT22;75042;43.504;3.714;2024-01-27T01:08:28;7.50;94.40
84807;DHT22;75042;43.504;3.714;2024-01-27T01:10:53;7.50;94.10
84807;DHT22;75042;43.504;3.714;2024-01-27T01:13:19;7.50;94.90
84807;DHT22;75042;43.504;3.714;2024-01-27T01:15:45;7.50;94.40
84807;DHT22;75042;43.504;3.714;2024-01-27T01:18:10;7.60;96.20
84807;DHT22;75042;43.504;3.714;2024-01-27T01:20:36;7.60;96.30
84807;DHT22;75042;43.504;3.714;2024-01-27T01:23:01;7.60;94.60
84807;DHT22;75042;43.504;3.714;2024-01-27T01:25:27;7.40;94.30
84807;DHT22;75042;43.504;3.714;2024-01-27T01:27:52;7.30;94.90
84807;DHT22;75042;43.504;3.714;2024-01-27T01:30:18;7.30;95.10
84807;DHT22;75042;43.504;3.714;2024-01-27T01:32:43;7.20;94.40
84807;DHT22;75042;43.504;3.714;2024-01-27T01:35:12;7.20;94.80
84807;DHT22;75042;43.504;3.714;2024-01-27T01:37:38;7.20;94.30
84807;DHT22;75042;43.504;3.714;2024-01-27T01:40:05;7.10;94.70
84807;DHT22;75042;43.504;3.714;2024-01-27T01:42:30;7.00;94.70
84807;DHT22;75042;43.504;3.714;2024-01-27T01:44:56;7.10;96.30
84807;DHT22;75042;43.504;3.714;2024-01-27T01:47:21;7.20;96.80
84807;DHT22;75042;43.504;3.714;2024-01-27T01:49:48;7.20;96.30
84807;DHT22;75042;43.504;3.714;2024-01-27T01:52:14;7.20;95.10
84807;DHT22;75042;43.504;3.714;2024-01-27T01:54:48;7.10;95.00
84807;DHT22;75042;43.504;3.714;2024-01-27T01:57:14;7.10;95.20
84807;DHT22;75042;43.504;3.714;2024-01-27T01:59:40;7.10;96.20
84807;DHT22;75042;43.504;3.714;2024-01-27T02:02:06;7.00;95.80
84807;DHT22;75042;43.504;3.714;2024-01-27T02:04:53;7.00;95.30
84807;DHT22;75042;43.504;3.714;2024-01-27T02:07:17;7.00;95.50
84807;DHT22;75042;43.504;3.714;2024-01-27T02:09:43;6.90;95.30
84807;DHT22;75042;43.504;3.714;2024-01-27T02:12:09;6.80;95.60
84807;DHT22;75042;43.504;3.714;2024-01-27T02:14:35;6.80;95.20
84807;DHT22;75042;43.504;3.714;2024-01-27T02:17:00;6.80;95.70
84807;DHT22;75042;43.504;3.714;2024-01-27T02:19:26;6.70;94.80
84807;DHT22;75042;43.504;3.714;2024-01-27T02:21:51;6.70;96.10
84807;DHT22;75042;43.504;3.714;2024-01-27T02:24:17;6.90;96.00
84807;DHT22;75042;43.504;3.714;2024-01-27T02:26:42;6.90;95.20
84807;DHT22;75042;43.504;3.714;2024-01-27T02:29:08;6.90;95.00
84807;DHT22;75042;43.504;3.714;2024-01-27T02:31:33;6.80;94.20
84807;DHT22;75042;43.504;3.714;2024-01-27T02:33:59;6.70;94.50
84807;DHT22;75042;43.504;3.714;2024-01-27T02:36:24;6.70;94.10
84807;DHT22;75042;43.504;3.714;2024-01-27T02:38:50;6.50;94.00
84807;DHT22;75042;43.504;3.714;2024-01-27T02:41:15;6.50;95.50
84807;DHT22;75042;43.504;3.714;2024-01-27T02:43:41;6.40;95.80
84807;DHT22;75042;43.504;3.714;2024-01-27T02:46:11;6.40;96.10
84807;DHT22;75042;43.504;3.714;2024-01-27T02:48:41;6.40;96.30
84807;DHT22;75042;43.504;3.714;2024-01-27T02:51:07;6.30;96.30
84807;DHT22;75042;43.504;3.714;2024-01-27T02:53:33;6.40;97.70
84807;DHT22;75042;43.504;3.714;2024-01-27T02:55:58;6.40;97.20
84807;DHT22;75042;43.504;3.714;2024-01-27T02:58:24;6.50;97.50
84807;DHT22;75042;43.504;3.714;2024-01-27T03:00:49;6.50;98.00
84807;DHT22;75042;43.504;3.714;2024-01-27T03:03:15;6.80;99.10
84807;DHT22;75042;43.504;3.714;2024-01-27T03:05:40;6.80;98.50
84807;DHT22;75042;43.504;3.714;2024-01-27T03:08:06;6.90;98.50
84807;DHT22;75042;43.504;3.714;2024-01-27T03:10:32;6.90;97.90
84807;DHT22;75042;43.504;3.714;2024-01-27T03:12:57;6.80;97.60
84807;DHT22;75042;43.504;3.714;2024-01-27T03:15:23;6.70;97.00
84807;DHT22;75042;43.504;3.714;2024-01-27T03:17:48;6.70;97.40
84807;DHT22;75042;43.504;3.714;2024-01-27T03:20:14;6.70;97.40
84807;DHT22;75042;43.504;3.714;2024-01-27T03:22:39;6.70;98.50
84807;DHT22;75042;43.504;3.714;2024-01-27T03:25:07;6.60;98.40
84807;DHT22;75042;43.504;3.714;2024-01-27T03:27:33;6.70;98.70
84807;DHT22;75042;43.504;3.714;2024-01-27T03:29:59;6.60;98.30
84807;DHT22;75042;43.504;3.714;2024-01-27T03:32:25;6.70;98.60
84807;DHT22;75042;43.504;3.714;2024-01-27T03:34:51;6.60;98.10
84807;DHT22;75042;43.504;3.714;2024-01-27T03:37:16;6.60;99.30
84807;DHT22;75042;43.504;3.714;2024-01-27T03:39:42;6.80;99.90
84807;DHT22;75042;43.504;3.714;2024-01-27T03:42:10;6.70;99.10
84807;DHT22;75042;43.504;3.714;2024-01-27T03:44:36;6.70;98.40
84807;DHT22;75042;43.504;3.714;2024-01-27T03:47:01;6.70;98.90
84807;DHT22;75042;43.504;3.714;2024-01-27T03:49:27;6.90;99.90
84807;DHT22;75042;43.504;3.714;2024-01-27T03:51:52;6.90;99.50
84807;DHT22;75042;43.504;3.714;2024-01-27T03:54:18;7.00;99.60
84807;DHT22;75042;43.504;3.714;2024-01-27T03:56:43;6.90;99.00
84807;DHT22;75042;43.504;3.714;2024-01-27T03:59:09;7.00;99.20
84807;DHT22;75042;43.504;3.714;2024-01-27T04:01:36;7.00;98.90
84807;DHT22;75042;43.504;3.714;2024-01-27T04:04:01;7.10;97.30
84807;DHT22;75042;43.504;3.714;2024-01-27T04:06:27;7.00;97.90
84807;DHT22;75042;43.504;3.714;2024-01-27T04:08:52;7.10;98.70
84807;DHT22;75042;43.504;3.714;2024-01-27T04:11:19;7.00;97.60
84807;DHT22;75042;43.504;3.714;2024-01-27T04:13:44;6.90;97.20
84807;DHT22;75042;43.504;3.714;2024-01-27T04:16:10;6.80;96.90
84807;DHT22;75042;43.504;3.714;2024-01-27T04:18:35;6.70;95.30
84807;DHT22;75042;43.504;3.714;2024-01-27T04:21:01;6.40;94.50
84807;DHT22;75042;43.504;3.714;2024-01-27T04:23:26;6.20;94.40
84807;DHT22;75042;43.504;3.714;2024-01-27T04:25:52;6.00;95.30
84807;DHT22;75042;43.504;3.714;2024-01-27T04:28:17;5.90;95.00
84807;DHT22;75042;43.504;3.714;2024-01-27T04:30:43;5.70;95.20
84807;DHT22;75042;43.504;3.714;2024-01-27T04:33:08;5.70;95.80
84807;DHT22;75042;43.504;3.714;2024-01-27T04:35:34;5.60;96.00
84807;DHT22;75042;43.504;3.714;2024-01-27T04:37:59;5.60;97.10
84807;DHT22;75042;43.504;3.714;2024-01-27T04:40:25;5.60;98.10
84807;DHT22;75042;43.504;3.714;2024-01-27T04:42:51;5.60;98.50
84807;DHT22;75042;43.504;3.714;2024-01-27T04:45:16;5.60;98.50
84807;DHT22;75042;43.504;3.714;2024-01-27T04:47:42;5.60;98.00
84807;DHT22;75042;43.504;3.714;2024-01-27T04:50:07;5.60;98.30
84807;DHT22;75042;43.504;3.714;2024-01-27T04:52:33;5.60;98.60
84807;DHT22;75042;43.504;3.714;2024-01-27T04:54:58;5.60;99.60
84807;DHT22;75042;43.504;3.714;2024-01-27T04:57:24;5.70;99.90
84807;DHT22;75042;43.504;3.714;2024-01-27T04:59:50;5.70;99.90
84807;DHT22;75042;43.504;3.714;2024-01-27T05:02:15;5.60;99.90
84807;DHT22;75042;43.504;3.714;2024-01-27T05:04:41;5.60;99.90
84807;DHT22;75042;43.504;3.714;2024-01-27T05:07:06;5.60;99.90
84807;DHT22;75042;43.504;3.714;2024-01-27T05:09:33;5.60;99.90
84807;DHT22;75042;43.504;3.714;2024-01-27T05:11:59;5.60;99.90
84807;DHT22;75042;43.504;3.714;2024-01-27T05:14:25;5.70;99.90
84807;DHT22;75042;43.504;3.714;2024-01-27T05:16:50;5.70;99.90
84807;DHT22;75042;43.504;3.714;2024-01-27T05:19:16;5.70;99.90
84807;DHT22;75042;43.504;3.714;2024-01-27T05:21:43;5.70;99.90
84807;DHT22;75042;43.504;3.714;2024-01-27T05:24:09;5.70;99.90
84807;DHT22;75042;43.504;3.714;2024-01-27T05:26:34;5.70;99.90
84807;DHT22;75042;43.504;3.714;2024-01-27T05:29:00;5.70;99.90
84807;DHT22;75042;43.504;3.714;2024-01-27T05:31:26;5.70;99.90
84807;DHT22;75042;43.504;3.714;2024-01-27T05:33:51;5.70;99.90
84807;DHT22;75042;43.504;3.714;2024-01-27T05:36:17;5.60;99.90
84807;DHT22;75042;43.504;3.714;2024-01-27T05:38:43;5.60;99.90
84807;DHT22;75042;43.504;3.714;2024-01-27T05:41:08;5.50;99.30
84807;DHT22;75042;43.504;3.714;2024-01-27T05:43:34;5.50;99.50
84807;DHT22;75042;43.504;3.714;2024-01-27T05:45:59;5.40;99.10
84807;DHT22;75042;43.504;3.714;2024-01-27T05:48:25;5.30;99.30
84807;DHT22;75042;43.504;3.714;2024-01-27T05:51:00;5.30;99.70
84807;DHT22;75042;43.504;3.714;2024-01-27T05:53:26;5.30;99.90
84807;DHT22;75042;43.504;3.714;2024-01-27T05:55:51;5.30;99.90
84807;DHT22;75042;43.504;3.714;2024-01-27T05:58:20;5.30;99.90
84807;DHT22;75042;43.504;3.714;2024-01-27T06:00:48;5.20;99.70
84807;DHT22;75042;43.504;3.714;2024-01-27T06:03:14;5.20;99.90
84807;DHT22;75042;43.504;3.714;2024-01-27T06:05:43;5.30;99.90
84807;DHT22;75042;43.504;3.714;2024-01-27T06:08:09;5.30;99.90
84807;DHT22;75042;43.504;3.714;2024-01-27T06:10:34;5.30;99.90
84807;DHT22;75042;43.504;3.714;2024-01-27T06:13:02;5.40;99.90
84807;DHT22;75042;43.504;3.714;2024-01-27T06:15:28;5.40;99.90
84807;DHT22;75042;43.504;3.714;2024-01-27T06:17:53;5.40;99.90
84807;DHT22;75042;43.504;3.714;2024-01-27T06:20:19;5.40;99.90
84807;DHT22;75042;43.504;3.714;2024-01-27T06:22:44;5.40;99.90
84807;DHT22;75042;43.504;3.714;2024-01-27T06:25:10;5.40;99.90
84807;DHT22;75042;43.504;3.714;2024-01-27T06:27:38;5.40;99.90
84807;DHT22;75042;43.504;3.714;2024-01-27T06:30:06;5.40;99.90
84807;DHT22;75042;43.504;3.714;2024-01-27T06:32:32;5.30;99.90
84807;DHT22;75042;43.504;3.714;2024-01-27T06:34:57;5.30;99.90
84807;DHT22;75042;43.504;3.714;2024-01-27T06:37:23;5.20;99.90
84807;DHT22;75042;43.504;3.714;2024-01-27T06:39:48;5.10;99.90
84807;DHT22;75042;43.504;3.714;2024-01-27T06:42:14;5.00;99.90
84807;DHT22;75042;43.504;3.714;2024-01-27T06:44:39;5.00;99.90
84807;DHT22;75042;43.504;3.714;2024-01-27T06:47:05;5.00;99.90
84807;DHT22;75042;43.504;3.714;2024-01-27T06:49:31;5.00;99.90
84807;DHT22;75042;43.504;3.714;2024-01-27T06:51:57;4.90;99.90
84807;DHT22;75042;43.504;3.714;2024-01-27T06:54:22;4.80;99.90
84807;DHT22;75042;43.504;3.714;2024-01-27T06:56:48;4.80;99.90
84807;DHT22;75042;43.504;3.714;2024-01-27T06:59:13;4.80;99.90
84807;DHT22;75042;43.504;3.714;2024-01-27T07:01:47;4.70;99.90
84807;DHT22;75042;43.504;3.714;2024-01-27T07:04:16;4.70;99.70
84807;DHT22;75042;43.504;3.714;2024-01-27T07:06:42;4.60;99.80
84807;DHT22;75042;43.504;3.714;2024-01-27T07:09:08;4.60;99.90
84807;DHT22;75042;43.504;3.714;2024-01-27T07:11:36;4.60;99.90
84807;DHT22;75042;43.504;3.714;2024-01-27T07:14:02;4.60;99.90
84807;DHT22;75042;43.504;3.714;2024-01-27T07:16:28;4.70;99.90
84807;DHT22;75042;43.504;3.714;2024-01-27T07:18:53;4.70;99.90
84807;DHT22;75042;43.504;3.714;2024-01-27T07:21:19;4.80;99.90
84807;DHT22;75042;43.504;3.714;2024-01-27T07:23:44;4.80;99.90
84807;DHT22;75042;43.504;3.714;2024-01-27T07:26:10;5.00;99.90
84807;DHT22;75042;43.504;3.714;2024-01-27T07:28:36;5.20;99.90
84807;DHT22;75042;43.504;3.714;2024-01-27T07:31:02;5.30;99.90
84807;DHT22;75042;43.504;3.714;2024-01-27T07:33:27;5.40;99.90
84807;DHT22;75042;43.504;3.714;2024-01-27T07:35:53;5.40;99.90
84807;DHT22;75042;43.504;3.714;2024-01-27T07:38:18;5.50;99.90
84807;DHT22;75042;43.504;3.714;2024-01-27T07:40:44;5.60;99.90
84807;DHT22;75042;43.504;3.714;2024-01-27T07:43:09;5.70;99.90
84807;DHT22;75042;43.504;3.714;2024-01-27T07:45:35;5.70;99.90
84807;DHT22;75042;43.504;3.714;2024-01-27T07:48:00;5.80;99.90
84807;DHT22;75042;43.504;3.714;2024-01-27T07:50:26;5.90;99.90
84807;DHT22;75042;43.504;3.714;2024-01-27T07:52:52;5.90;99.90
84807;DHT22;75042;43.504;3.714;2024-01-27T07:55:17;6.00;99.90
84807;DHT22;75042;43.504;3.714;2024-01-27T07:57:43;5.90;99.10
84807;DHT22;75042;43.504;3.714;2024-01-27T08:00:09;5.80;96.60
84807;DHT22;75042;43.504;3.714;2024-01-27T08:02:34;5.70;95.30
84807;DHT22;75042;43.504;3.714;2024-01-27T08:05:00;5.50;96.00
84807;DHT22;75042;43.504;3.714;2024-01-27T08:07:25;5.50;96.70
84807;DHT22;75042;43.504;3.714;2024-01-27T08:09:51;5.40;97.30
84807;DHT22;75042;43.504;3.714;2024-01-27T08:12:16;5.40;97.90
84807;DHT22;75042;43.504;3.714;2024-01-27T08:14:42;5.50;98.40
84807;DHT22;75042;43.504;3.714;2024-01-27T08:17:08;5.60;98.60
84807;DHT22;75042;43.504;3.714;2024-01-27T08:19:33;5.70;98.70
84807;DHT22;75042;43.504;3.714;2024-01-27T08:21:59;5.90;99.60
84807;DHT22;75042;43.504;3.714;2024-01-27T08:24:25;6.00;99.90
84807;DHT22;75042;43.504;3.714;2024-01-27T08:26:50;6.20;99.90
84807;DHT22;75042;43.504;3.714;2024-01-27T08:29:16;6.40;99.60
84807;DHT22;75042;43.504;3.714;2024-01-27T08:31:41;6.70;99.90
84807;DHT22;75042;43.504;3.714;2024-01-27T08:34:07;6.90;99.90
84807;DHT22;75042;43.504;3.714;2024-01-27T08:36:33;7.20;99.80
84807;DHT22;75042;43.504;3.714;2024-01-27T08:38:59;7.70;99.10
84807;DHT22;75042;43.504;3.714;2024-01-27T08:41:25;8.30;96.70
84807;DHT22;75042;43.504;3.714;2024-01-27T08:43:51;8.90;92.30
84807;DHT22;75042;43.504;3.714;2024-01-27T08:46:16;9.00;91.40
84807;DHT22;75042;43.504;3.714;2024-01-27T08:48:44;9.50;89.10
84807;DHT22;75042;43.504;3.714;2024-01-27T08:51:10;9.60;88.40
84807;DHT22;75042;43.504;3.714;2024-01-27T08:53:38;9.70;88.70
84807;DHT22;75042;43.504;3.714;2024-01-27T08:56:03;9.90;88.50
84807;DHT22;75042;43.504;3.714;2024-01-27T08:58:30;10.60;86.60
84807;DHT22;75042;43.504;3.714;2024-01-27T09:00:55;11.30;81.80
84807;DHT22;75042;43.504;3.714;2024-01-27T09:03:21;12.10;78.90
84807;DHT22;75042;43.504;3.714;2024-01-27T09:05:47;12.70;75.80
84807;DHT22;75042;43.504;3.714;2024-01-27T09:08:12;13.20;72.00
84807;DHT22;75042;43.504;3.714;2024-01-27T09:10:38;13.40;71.30
84807;DHT22;75042;43.504;3.714;2024-01-27T09:13:04;13.70;71.00
84807;DHT22;75042;43.504;3.714;2024-01-27T09:15:30;14.40;66.70
84807;DHT22;75042;43.504;3.714;2024-01-27T09:17:56;14.60;65.70
84807;DHT22;75042;43.504;3.714;2024-01-27T09:20:22;15.30;63.30
84807;DHT22;75042;43.504;3.714;2024-01-27T09:22:47;15.80;61.30
84807;DHT22;75042;43.504;3.714;2024-01-27T09:25:15;16.50;59.10
84807;DHT22;75042;43.504;3.714;2024-01-27T09:27:40;16.80;58.50
84807;DHT22;75042;43.504;3.714;2024-01-27T09:30:06;17.00;56.40
84807;DHT22;75042;43.504;3.714;2024-01-27T09:32:32;16.70;57.90
84807;DHT22;75042;43.504;3.714;2024-01-27T09:34:58;16.50;59.00
84807;DHT22;75042;43.504;3.714;2024-01-27T09:37:23;17.10;58.10
84807;DHT22;75042;43.504;3.714;2024-01-27T09:39:49;17.50;56.10
84807;DHT22;75042;43.504;3.714;2024-01-27T09:42:14;17.40;55.60
84807;DHT22;75042;43.504;3.714;2024-01-27T09:44:44;17.50;53.70
84807;DHT22;75042;43.504;3.714;2024-01-27T09:47:13;17.00;55.30
84807;DHT22;75042;43.504;3.714;2024-01-27T09:49:39;17.50;52.90
84807;DHT22;75042;43.504;3.714;2024-01-27T09:52:05;18.00;53.70
84807;DHT22;75042;43.504;3.714;2024-01-27T09:54:31;17.80;51.20
84807;DHT22;75042;43.504;3.714;2024-01-27T09:56:57;17.40;52.50
84807;DHT22;75042;43.504;3.714;2024-01-27T09:59:23;17.10;52.20
84807;DHT22;75042;43.504;3.714;2024-01-27T10:01:50;16.80;52.60
84807;DHT22;75042;43.504;3.714;2024-01-27T10:04:17;16.80;52.90
84807;DHT22;75042;43.504;3.714;2024-01-27T10:06:43;17.20;50.20
84807;DHT22;75042;43.504;3.714;2024-01-27T10:09:08;17.10;49.20
84807;DHT22;75042;43.504;3.714;2024-01-27T10:11:36;16.60;50.00
84807;DHT22;75042;43.504;3.714;2024-01-27T10:14:01;16.90;50.50
84807;DHT22;75042;43.504;3.714;2024-01-27T10:16:27;17.00;49.00
84807;DHT22;75042;43.504;3.714;2024-01-27T10:19:00;17.70;46.60
84807;DHT22;75042;43.504;3.714;2024-01-27T10:21:26;17.60;47.00
84807;DHT22;75042;43.504;3.714;2024-01-27T10:23:52;18.00;46.20
84807;DHT22;75042;43.504;3.714;2024-01-27T10:26:18;19.10;45.50
84807;DHT22;75042;43.504;3.714;2024-01-27T10:28:51;19.00;46.60
84807;DHT22;75042;43.504;3.714;2024-01-27T10:31:17;19.40;45.00
84807;DHT22;75042;43.504;3.714;2024-01-27T10:33:51;19.50;43.90
84807;DHT22;75042;43.504;3.714;2024-01-27T10:36:17;20.10;43.50
84807;DHT22;75042;43.504;3.714;2024-01-27T10:38:43;19.00;44.60
84807;DHT22;75042;43.504;3.714;2024-01-27T10:41:08;18.70;45.30
84807;DHT22;75042;43.504;3.714;2024-01-27T10:43:37;18.90;46.20
84807;DHT22;75042;43.504;3.714;2024-01-27T10:46:05;19.20;45.30
84807;DHT22;75042;43.504;3.714;2024-01-27T10:48:30;19.00;45.40
84807;DHT22;75042;43.504;3.714;2024-01-27T10:50:57;18.90;45.10
84807;DHT22;75042;43.504;3.714;2024-01-27T10:53:24;18.40;47.00
84807;DHT22;75042;43.504;3.714;2024-01-27T10:55:52;19.50;45.20
84807;DHT22;75042;43.504;3.714;2024-01-27T10:58:18;20.90;42.40
84807;DHT22;75042;43.504;3.714;2024-01-27T11:00:45;19.80;44.50
84807;DHT22;75042;43.504;3.714;2024-01-27T11:03:11;19.90;44.10
84807;DHT22;75042;43.504;3.714;2024-01-27T11:05:36;20.80;42.60
84807;DHT22;75042;43.504;3.714;2024-01-27T11:08:04;20.80;42.10
84807;DHT22;75042;43.504;3.714;2024-01-27T11:10:31;20.70;43.10
84807;DHT22;75042;43.504;3.714;2024-01-27T11:13:04;20.50;43.50
84807;DHT22;75042;43.504;3.714;2024-01-27T11:15:30;20.00;44.20
84807;DHT22;75042;43.504;3.714;2024-01-27T11:17:58;20.20;43.50
84807;DHT22;75042;43.504;3.714;2024-01-27T11:20:32;21.20;42.40
84807;DHT22;75042;43.504;3.714;2024-01-27T11:23:08;21.80;40.70
84807;DHT22;75042;43.504;3.714;2024-01-27T11:25:34;22.40;38.70
84807;DHT22;75042;43.504;3.714;2024-01-27T11:27:59;21.60;39.80
84807;DHT22;75042;43.504;3.714;2024-01-27T11:30:35;21.70;39.50
84807;DHT22;75042;43.504;3.714;2024-01-27T11:33:05;22.10;39.60
84807;DHT22;75042;43.504;3.714;2024-01-27T11:35:30;22.60;38.70
84807;DHT22;75042;43.504;3.714;2024-01-27T11:37:56;23.00;37.20
84807;DHT22;75042;43.504;3.714;2024-01-27T11:40:22;22.20;39.10
84807;DHT22;75042;43.504;3.714;2024-01-27T11:43:00;22.00;39.90
84807;DHT22;75042;43.504;3.714;2024-01-27T11:45:26;22.50;39.50
84807;DHT22;75042;43.504;3.714;2024-01-27T11:47:54;21.30;39.20
84807;DHT22;75042;43.504;3.714;2024-01-27T11:50:21;20.20;42.20
84807;DHT22;75042;43.504;3.714;2024-01-27T11:52:46;21.50;40.30
84807;DHT22;75042;43.504;3.714;2024-01-27T11:55:12;21.50;40.40
84807;DHT22;75042;43.504;3.714;2024-01-27T11:57:42;21.90;39.80
84807;DHT22;75042;43.504;3.714;2024-01-27T12:00:08;22.10;38.60
84807;DHT22;75042;43.504;3.714;2024-01-27T12:02:39;20.50;42.20
84807;DHT22;75042;43.504;3.714;2024-01-27T12:05:05;20.30;42.20
84807;DHT22;75042;43.504;3.714;2024-01-27T12:07:31;20.40;42.60
84807;DHT22;75042;43.504;3.714;2024-01-27T12:09:56;20.50;43.30
84807;DHT22;75042;43.504;3.714;2024-01-27T12:12:22;20.40;43.20
84807;DHT22;75042;43.504;3.714;2024-01-27T12:14:48;20.00;42.90
84807;DHT22;75042;43.504;3.714;2024-01-27T12:17:14;19.80;43.50
84807;DHT22;75042;43.504;3.714;2024-01-27T12:24:49;18.80;46.50
84807;DHT22;75042;43.504;3.714;2024-01-27T12:27:15;19.20;44.60
84807;DHT22;75042;43.504;3.714;2024-01-27T12:29:41;19.70;44.10
84807;DHT22;75042;43.504;3.714;2024-01-27T12:32:07;19.40;45.50
84807;DHT22;75042;43.504;3.714;2024-01-27T12:34:33;19.40;45.40
84807;DHT22;75042;43.504;3.714;2024-01-27T12:36:58;19.50;45.30
84807;DHT22;75042;43.504;3.714;2024-01-27T12:39:25;19.50;44.60
84807;DHT22;75042;43.504;3.714;2024-01-27T12:41:51;19.40;45.20
84807;DHT22;75042;43.504;3.714;2024-01-27T12:44:16;19.40;45.50
84807;DHT22;75042;43.504;3.714;2024-01-27T12:46:42;19.30;45.70
84807;DHT22;75042;43.504;3.714;2024-01-27T12:49:07;19.20;45.30
84807;DHT22;75042;43.504;3.714;2024-01-27T12:51:33;19.30;45.80
84807;DHT22;75042;43.504;3.714;2024-01-27T12:53:59;19.20;45.60
84807;DHT22;75042;43.504;3.714;2024-01-27T12:56:24;19.00;45.70
84807;DHT22;75042;43.504;3.714;2024-01-27T12:58:50;19.10;45.80
84807;DHT22;75042;43.504;3.714;2024-01-27T13:01:16;19.20;44.90
84807;DHT22;75042;43.504;3.714;2024-01-27T13:03:41;19.10;45.90
84807;DHT22;75042;43.504;3.714;2024-01-27T13:06:07;19.10;45.90
84807;DHT22;75042;43.504;3.714;2024-01-27T13:08:32;19.10;45.70
84807;DHT22;75042;43.504;3.714;2024-01-27T13:10:58;19.10;46.30
84807;DHT22;75042;43.504;3.714;2024-01-27T13:13:24;19.10;45.90
84807;DHT22;75042;43.504;3.714;2024-01-27T13:15:49;19.00;45.90
84807;DHT22;75042;43.504;3.714;2024-01-27T13:18:15;18.80;46.60
84807;DHT22;75042;43.504;3.714;2024-01-27T13:20:40;18.80;46.80
84807;DHT22;75042;43.504;3.714;2024-01-27T13:23:06;18.90;45.70
84807;DHT22;75042;43.504;3.714;2024-01-27T13:25:32;18.50;45.80
84807;DHT22;75042;43.504;3.714;2024-01-27T13:27:58;18.70;45.60
84807;DHT22;75042;43.504;3.714;2024-01-27T13:30:24;18.90;46.90
84807;DHT22;75042;43.504;3.714;2024-01-27T13:32:50;19.00;45.40
84807;DHT22;75042;43.504;3.714;2024-01-27T13:35:16;18.70;44.30
84807;DHT22;75042;43.504;3.714;2024-01-27T13:37:41;18.60;42.50
84807;DHT22;75042;43.504;3.714;2024-01-27T13:40:07;18.40;42.30
84807;DHT22;75042;43.504;3.714;2024-01-27T13:42:37;18.30;42.70
84807;DHT22;75042;43.504;3.714;2024-01-27T13:45:03;18.50;43.00
84807;DHT22;75042;43.504;3.714;2024-01-27T13:47:29;18.50;41.50
84807;DHT22;75042;43.504;3.714;2024-01-27T13:49:55;18.60;40.70
84807;DHT22;75042;43.504;3.714;2024-01-27T13:52:21;18.60;39.90
84807;DHT22;75042;43.504;3.714;2024-01-27T13:54:46;18.60;40.30
84807;DHT22;75042;43.504;3.714;2024-01-27T13:57:12;18.50;39.80
84807;DHT22;75042;43.504;3.714;2024-01-27T13:59:37;18.50;40.70
84807;DHT22;75042;43.504;3.714;2024-01-27T14:02:03;18.40;41.10
84807;DHT22;75042;43.504;3.714;2024-01-27T14:04:29;18.30;40.60
84807;DHT22;75042;43.504;3.714;2024-01-27T14:06:54;18.20;41.40
84807;DHT22;75042;43.504;3.714;2024-01-27T14:09:20;18.10;42.70
84807;DHT22;75042;43.504;3.714;2024-01-27T14:11:46;18.00;41.80
84807;DHT22;75042;43.504;3.714;2024-01-27T14:14:12;18.00;42.80
84807;DHT22;75042;43.504;3.714;2024-01-27T14:16:37;18.00;42.40
84807;DHT22;75042;43.504;3.714;2024-01-27T14:19:03;18.00;42.50
84807;DHT22;75042;43.504;3.714;2024-01-27T14:21:29;18.00;43.30
84807;DHT22;75042;43.504;3.714;2024-01-27T14:23:54;18.00;41.90
84807;DHT22;75042;43.504;3.714;2024-01-27T14:26:28;17.90;43.30
84807;DHT22;75042;43.504;3.714;2024-01-27T14:28:54;17.80;43.50
84807;DHT22;75042;43.504;3.714;2024-01-27T14:31:20;17.80;44.10
84807;DHT22;75042;43.504;3.714;2024-01-27T14:33:45;17.70;44.80
84807;DHT22;75042;43.504;3.714;2024-01-27T14:36:11;17.70;45.00
84807;DHT22;75042;43.504;3.714;2024-01-27T14:38:37;17.70;43.70
84807;DHT22;75042;43.504;3.714;2024-01-27T14:41:02;17.60;45.50
84807;DHT22;75042;43.504;3.714;2024-01-27T14:43:28;17.60;48.80
84807;DHT22;75042;43.504;3.714;2024-01-27T14:45:54;17.50;49.90
84807;DHT22;75042;43.504;3.714;2024-01-27T14:48:21;17.30;50.00
84807;DHT22;75042;43.504;3.714;2024-01-27T14:50:46;17.20;50.60
84807;DHT22;75042;43.504;3.714;2024-01-27T14:53:20;17.20;51.30
84807;DHT22;75042;43.504;3.714;2024-01-27T14:55:46;17.10;49.90
84807;DHT22;75042;43.504;3.714;2024-01-27T14:58:11;17.00;50.00
84807;DHT22;75042;43.504;3.714;2024-01-27T15:00:37;17.00;50.10
84807;DHT22;75042;43.504;3.714;2024-01-27T15:03:06;17.00;50.10
84807;DHT22;75042;43.504;3.714;2024-01-27T15:05:31;17.00;51.20
84807;DHT22;75042;43.504;3.714;2024-01-27T15:08:04;16.90;51.30
84807;DHT22;75042;43.504;3.714;2024-01-27T15:10:30;16.80;51.80
84807;DHT22;75042;43.504;3.714;2024-01-27T15:12:56;16.80;52.10
84807;DHT22;75042;43.504;3.714;2024-01-27T15:15:23;16.70;52.40
84807;DHT22;75042;43.504;3.714;2024-01-27T15:17:49;16.60;52.60
84807;DHT22;75042;43.504;3.714;2024-01-27T15:20:15;16.50;53.20
84807;DHT22;75042;43.504;3.714;2024-01-27T15:22:40;16.40;53.30
84807;DHT22;75042;43.504;3.714;2024-01-27T15:25:06;16.40;53.80
84807;DHT22;75042;43.504;3.714;2024-01-27T15:27:32;16.30;53.80
84807;DHT22;75042;43.504;3.714;2024-01-27T15:29:57;16.20;54.00
84807;DHT22;75042;43.504;3.714;2024-01-27T15:32:23;16.10;54.60
84807;DHT22;75042;43.504;3.714;2024-01-27T15:34:52;16.00;55.50
84807;DHT22;75042;43.504;3.714;2024-01-27T15:37:18;16.00;55.20